sensor_id;sensor_type;location;lat;lon;timestamp;P1;durP1;ratioP1;P2;durP2;ratioP2
37535;SDS011;23379;51.554;6.736;2023-06-10T00:01:36;8.75;;;6.15;;
37535;SDS011;23379;51.554;6.736;2023-06-10T00:04:01;8.43;;;6.68;;
37535;SDS011;23379;51.554;6.736;2023-06-10T00:06:27;6.43;;;5.82;;
37535;SDS011;23379;51.554;6.736;2023-06-10T00:08:53;8.25;;;5.80;;
37535;SDS011;23379;51.554;6.736;2023-06-10T00:11:20;9.70;;;6.50;;
37535;SDS011;23379;51.554;6.736;2023-06-10T00:13:46;9.02;;;6.07;;
37535;SDS011;23379;51.554;6.736;2023-06-10T00:16:12;13.63;;;6.25;;
37535;SDS011;23379;51.554;6.736;2023-06-10T00:18:37;8.88;;;5.72;;
37535;SDS011;23379;51.554;6.736;2023-06-10T00:21:03;8.98;;;6.05;;
37535;SDS011;23379;51.554;6.736;2023-06-10T00:23:29;11.77;;;6.75;;
37535;SDS011;23379;51.554;6.736;2023-06-10T00:26:03;11.45;;;6.70;;
37535;SDS011;23379;51.554;6.736;2023-06-10T00:28:28;9.23;;;6.78;;
37535;SDS011;23379;51.554;6.736;2023-06-10T00:30:54;9.68;;;6.22;;
37535;SDS011;23379;51.554;6.736;2023-06-10T00:33:19;7.43;;;6.20;;
37535;SDS011;23379;51.554;6.736;2023-06-10T00:35:44;8.13;;;6.22;;
37535;SDS011;23379;51.554;6.736;2023-06-10T00:38:10;9.13;;;6.78;;
37535;SDS011;23379;51.554;6.736;2023-06-10T00:40:38;8.60;;;6.50;;
37535;SDS011;23379;51.554;6.736;2023-06-10T00:43:05;10.55;;;6.55;;
37535;SDS011;23379;51.554;6.736;2023-06-10T00:45:31;9.05;;;6.30;;
37535;SDS011;23379;51.554;6.736;2023-06-10T00:47:56;10.38;;;7.00;;
37535;SDS011;23379;51.554;6.736;2023-06-10T00:50:22;13.25;;;6.85;;
37535;SDS011;23379;51.554;6.736;2023-06-10T00:52:47;8.13;;;6.95;;
37535;SDS011;23379;51.554;6.736;2023-06-10T00:55:13;9.02;;;7.30;;
37535;SDS011;23379;51.554;6.736;2023-06-10T00:57:41;9.35;;;6.68;;
37535;SDS011;23379;51.554;6.736;2023-06-10T01:00:09;12.63;;;7.78;;
37535;SDS011;23379;51.554;6.736;2023-06-10T01:02:35;10.40;;;7.50;;
37535;SDS011;23379;51.554;6.736;2023-06-10T01:05:01;10.60;;;7.30;;
37535;SDS011;23379;51.554;6.736;2023-06-10T01:10:22;10.32;;;7.60;;
37535;SDS011;23379;51.554;6.736;2023-06-10T01:13:00;12.50;;;7.93;;
37535;SDS011;23379;51.554;6.736;2023-06-10T01:15:31;9.70;;;7.25;;
37535;SDS011;23379;51.554;6.736;2023-06-10T01:20:24;9.88;;;7.90;;
37535;SDS011;23379;51.554;6.736;2023-06-10T01:23:01;13.57;;;7.90;;
37535;SDS011;23379;51.554;6.736;2023-06-10T01:25:28;13.57;;;7.53;;
37535;SDS011;23379;51.554;6.736;2023-06-10T01:28:01;12.10;;;8.30;;
37535;SDS011;23379;51.554;6.736;2023-06-10T01:30:29;10.68;;;7.78;;
37535;SDS011;23379;51.554;6.736;2023-06-10T01:32:58;12.23;;;7.97;;
37535;SDS011;23379;51.554;6.736;2023-06-10T01:35:25;14.07;;;8.60;;
37535;SDS011;23379;51.554;6.736;2023-06-10T01:37:52;8.82;;;7.57;;
37535;SDS011;23379;51.554;6.736;2023-06-10T01:40:19;14.18;;;8.70;;
37535;SDS011;23379;51.554;6.736;2023-06-10T01:42:45;17.17;;;8.63;;
37535;SDS011;23379;51.554;6.736;2023-06-10T01:45:11;13.45;;;8.60;;
37535;SDS011;23379;51.554;6.736;2023-06-10T01:47:36;11.77;;;8.35;;
37535;SDS011;23379;51.554;6.736;2023-06-10T01:50:01;16.40;;;8.73;;
37535;SDS011;23379;51.554;6.736;2023-06-10T01:52:27;15.65;;;8.88;;
37535;SDS011;23379;51.554;6.736;2023-06-10T01:54:53;11.18;;;8.20;;
37535;SDS011;23379;51.554;6.736;2023-06-10T01:57:18;10.23;;;8.85;;
37535;SDS011;23379;51.554;6.736;2023-06-10T01:59:44;13.45;;;8.75;;
37535;SDS011;23379;51.554;6.736;2023-06-10T02:02:11;10.55;;;8.38;;
37535;SDS011;23379;51.554;6.736;2023-06-10T02:07:09;18.67;;;9.02;;
37535;SDS011;23379;51.554;6.736;2023-06-10T02:09:37;11.10;;;8.35;;
37535;SDS011;23379;51.554;6.736;2023-06-10T02:12:03;11.30;;;9.20;;
37535;SDS011;23379;51.554;6.736;2023-06-10T02:14:29;15.15;;;8.65;;
37535;SDS011;23379;51.554;6.736;2023-06-10T02:16:54;19.38;;;9.15;;
37535;SDS011;23379;51.554;6.736;2023-06-10T02:19:21;13.15;;;8.55;;
37535;SDS011;23379;51.554;6.736;2023-06-10T02:21:48;18.35;;;9.75;;
37535;SDS011;23379;51.554;6.736;2023-06-10T02:24:13;14.45;;;9.10;;
37535;SDS011;23379;51.554;6.736;2023-06-10T02:26:39;10.20;;;8.95;;
37535;SDS011;23379;51.554;6.736;2023-06-10T02:29:05;12.05;;;8.68;;
37535;SDS011;23379;51.554;6.736;2023-06-10T02:31:30;13.30;;;8.68;;
37535;SDS011;23379;51.554;6.736;2023-06-10T02:34:00;10.88;;;8.13;;
37535;SDS011;23379;51.554;6.736;2023-06-10T02:36:26;14.52;;;9.52;;
37535;SDS011;23379;51.554;6.736;2023-06-10T02:38:52;10.95;;;8.75;;
37535;SDS011;23379;51.554;6.736;2023-06-10T02:41:18;11.55;;;8.57;;
37535;SDS011;23379;51.554;6.736;2023-06-10T02:43:43;11.10;;;9.15;;
37535;SDS011;23379;51.554;6.736;2023-06-10T02:46:08;11.50;;;8.95;;
37535;SDS011;23379;51.554;6.736;2023-06-10T02:48:40;12.95;;;8.73;;
37535;SDS011;23379;51.554;6.736;2023-06-10T02:51:06;10.40;;;9.02;;
37535;SDS011;23379;51.554;6.736;2023-06-10T02:53:32;11.73;;;9.57;;
37535;SDS011;23379;51.554;6.736;2023-06-10T02:55:57;12.18;;;9.10;;
37535;SDS011;23379;51.554;6.736;2023-06-10T02:58:22;16.02;;;9.98;;
37535;SDS011;23379;51.554;6.736;2023-06-10T03:00:49;11.80;;;9.07;;
37535;SDS011;23379;51.554;6.736;2023-06-10T03:03:14;12.85;;;9.50;;
37535;SDS011;23379;51.554;6.736;2023-06-10T03:05:40;12.90;;;9.52;;
37535;SDS011;23379;51.554;6.736;2023-06-10T03:08:05;12.90;;;10.13;;
37535;SDS011;23379;51.554;6.736;2023-06-10T03:10:30;15.70;;;9.05;;
37535;SDS011;23379;51.554;6.736;2023-06-10T03:12:58;16.13;;;9.52;;
37535;SDS011;23379;51.554;6.736;2023-06-10T03:15:23;10.48;;;8.93;;
37535;SDS011;23379;51.554;6.736;2023-06-10T03:17:49;13.60;;;9.55;;
37535;SDS011;23379;51.554;6.736;2023-06-10T03:20:15;13.00;;;9.18;;
37535;SDS011;23379;51.554;6.736;2023-06-10T03:22:41;11.23;;;9.70;;
37535;SDS011;23379;51.554;6.736;2023-06-10T03:25:07;11.90;;;9.73;;
37535;SDS011;23379;51.554;6.736;2023-06-10T03:27:38;14.63;;;9.70;;
37535;SDS011;23379;51.554;6.736;2023-06-10T03:30:04;13.02;;;9.93;;
37535;SDS011;23379;51.554;6.736;2023-06-10T03:32:30;12.65;;;9.68;;
37535;SDS011;23379;51.554;6.736;2023-06-10T03:34:56;11.98;;;9.70;;
37535;SDS011;23379;51.554;6.736;2023-06-10T03:37:22;11.52;;;9.65;;
37535;SDS011;23379;51.554;6.736;2023-06-10T03:39:47;12.73;;;9.07;;
37535;SDS011;23379;51.554;6.736;2023-06-10T03:42:13;13.70;;;9.77;;
37535;SDS011;23379;51.554;6.736;2023-06-10T03:44:38;12.50;;;8.88;;
37535;SDS011;23379;51.554;6.736;2023-06-10T03:47:04;15.52;;;9.75;;
37535;SDS011;23379;51.554;6.736;2023-06-10T03:49:29;14.13;;;8.90;;
37535;SDS011;23379;51.554;6.736;2023-06-10T03:51:55;12.88;;;9.48;;
37535;SDS011;23379;51.554;6.736;2023-06-10T03:54:20;12.63;;;9.57;;
37535;SDS011;23379;51.554;6.736;2023-06-10T03:56:46;10.40;;;8.73;;
37535;SDS011;23379;51.554;6.736;2023-06-10T03:59:13;13.27;;;9.68;;
37535;SDS011;23379;51.554;6.736;2023-06-10T04:01:38;11.52;;;9.13;;
37535;SDS011;23379;51.554;6.736;2023-06-10T04:04:06;11.32;;;8.50;;
37535;SDS011;23379;51.554;6.736;2023-06-10T04:06:31;10.25;;;8.45;;
37535;SDS011;23379;51.554;6.736;2023-06-10T04:08:56;15.70;;;8.73;;
37535;SDS011;23379;51.554;6.736;2023-06-10T04:11:22;11.45;;;8.77;;
37535;SDS011;23379;51.554;6.736;2023-06-10T04:13:50;12.38;;;8.77;;
37535;SDS011;23379;51.554;6.736;2023-06-10T04:16:16;11.73;;;8.30;;
37535;SDS011;23379;51.554;6.736;2023-06-10T04:18:42;10.05;;;8.57;;
37535;SDS011;23379;51.554;6.736;2023-06-10T04:21:07;12.90;;;8.25;;
37535;SDS011;23379;51.554;6.736;2023-06-10T04:23:34;12.95;;;8.50;;
37535;SDS011;23379;51.554;6.736;2023-06-10T04:26:02;12.98;;;7.88;;
37535;SDS011;23379;51.554;6.736;2023-06-10T04:28:27;13.30;;;8.13;;
37535;SDS011;23379;51.554;6.736;2023-06-10T04:30:53;9.77;;;7.60;;
37535;SDS011;23379;51.554;6.736;2023-06-10T04:33:18;9.80;;;7.47;;
37535;SDS011;23379;51.554;6.736;2023-06-10T04:35:44;16.13;;;8.30;;
37535;SDS011;23379;51.554;6.736;2023-06-10T04:38:09;10.88;;;8.02;;
37535;SDS011;23379;51.554;6.736;2023-06-10T04:40:35;12.00;;;7.63;;
37535;SDS011;23379;51.554;6.736;2023-06-10T04:43:00;11.27;;;7.32;;
37535;SDS011;23379;51.554;6.736;2023-06-10T04:45:25;10.07;;;7.15;;
37535;SDS011;23379;51.554;6.736;2023-06-10T04:47:51;12.57;;;7.72;;
37535;SDS011;23379;51.554;6.736;2023-06-10T04:50:16;11.02;;;7.47;;
37535;SDS011;23379;51.554;6.736;2023-06-10T04:52:42;9.88;;;6.97;;
37535;SDS011;23379;51.554;6.736;2023-06-10T04:55:07;13.05;;;7.13;;
37535;SDS011;23379;51.554;6.736;2023-06-10T04:57:33;14.85;;;7.60;;
37535;SDS011;23379;51.554;6.736;2023-06-10T04:59:59;10.15;;;7.50;;
37535;SDS011;23379;51.554;6.736;2023-06-10T05:02:24;10.50;;;7.22;;
37535;SDS011;23379;51.554;6.736;2023-06-10T05:04:49;10.95;;;7.63;;
37535;SDS011;23379;51.554;6.736;2023-06-10T05:07:15;14.63;;;7.13;;
37535;SDS011;23379;51.554;6.736;2023-06-10T05:09:40;11.90;;;7.57;;
37535;SDS011;23379;51.554;6.736;2023-06-10T05:12:06;11.32;;;7.43;;
37535;SDS011;23379;51.554;6.736;2023-06-10T05:14:32;15.38;;;7.78;;
37535;SDS011;23379;51.554;6.736;2023-06-10T05:16:57;13.00;;;7.20;;
37535;SDS011;23379;51.554;6.736;2023-06-10T05:19:22;12.32;;;7.10;;
37535;SDS011;23379;51.554;6.736;2023-06-10T05:21:48;13.30;;;6.93;;
37535;SDS011;23379;51.554;6.736;2023-06-10T05:24:14;14.82;;;6.97;;
37535;SDS011;23379;51.554;6.736;2023-06-10T05:26:39;11.68;;;6.80;;
37535;SDS011;23379;51.554;6.736;2023-06-10T05:29:06;9.80;;;6.57;;
37535;SDS011;23379;51.554;6.736;2023-06-10T05:31:32;14.20;;;7.35;;
37535;SDS011;23379;51.554;6.736;2023-06-10T05:33:58;9.98;;;6.20;;
37535;SDS011;23379;51.554;6.736;2023-06-10T05:36:23;11.15;;;6.75;;
37535;SDS011;23379;51.554;6.736;2023-06-10T05:38:51;13.23;;;6.85;;
37535;SDS011;23379;51.554;6.736;2023-06-10T05:41:16;13.70;;;6.57;;
37535;SDS011;23379;51.554;6.736;2023-06-10T05:43:41;11.93;;;6.35;;
37535;SDS011;23379;51.554;6.736;2023-06-10T05:46:07;11.20;;;6.10;;
37535;SDS011;23379;51.554;6.736;2023-06-10T05:48:32;15.90;;;6.35;;
37535;SDS011;23379;51.554;6.736;2023-06-10T05:50:57;11.77;;;6.20;;
37535;SDS011;23379;51.554;6.736;2023-06-10T05:53:23;10.93;;;6.63;;
37535;SDS011;23379;51.554;6.736;2023-06-10T05:55:48;9.50;;;5.97;;
37535;SDS011;23379;51.554;6.736;2023-06-10T05:58:14;9.98;;;6.32;;
37535;SDS011;23379;51.554;6.736;2023-06-10T06:00:39;14.68;;;6.32;;
37535;SDS011;23379;51.554;6.736;2023-06-10T06:03:08;14.52;;;6.18;;
37535;SDS011;23379;51.554;6.736;2023-06-10T06:05:34;15.73;;;6.18;;
37535;SDS011;23379;51.554;6.736;2023-06-10T06:08:00;13.13;;;5.45;;
37535;SDS011;23379;51.554;6.736;2023-06-10T06:10:29;15.80;;;6.35;;
37535;SDS011;23379;51.554;6.736;2023-06-10T06:12:55;9.70;;;5.68;;
37535;SDS011;23379;51.554;6.736;2023-06-10T06:15:21;12.65;;;6.22;;
37535;SDS011;23379;51.554;6.736;2023-06-10T06:17:46;16.27;;;6.28;;
37535;SDS011;23379;51.554;6.736;2023-06-10T06:20:12;10.02;;;5.82;;
37535;SDS011;23379;51.554;6.736;2023-06-10T06:22:38;8.88;;;5.38;;
37535;SDS011;23379;51.554;6.736;2023-06-10T06:25:03;13.05;;;6.22;;
37535;SDS011;23379;51.554;6.736;2023-06-10T06:27:29;18.40;;;5.57;;
37535;SDS011;23379;51.554;6.736;2023-06-10T06:29:54;11.93;;;4.95;;
37535;SDS011;23379;51.554;6.736;2023-06-10T06:32:20;13.65;;;5.70;;
37535;SDS011;23379;51.554;6.736;2023-06-10T06:34:47;9.20;;;5.22;;
37535;SDS011;23379;51.554;6.736;2023-06-10T06:37:14;7.88;;;5.40;;
37535;SDS011;23379;51.554;6.736;2023-06-10T06:39:39;8.50;;;5.25;;
37535;SDS011;23379;51.554;6.736;2023-06-10T06:42:05;8.88;;;4.93;;
37535;SDS011;23379;51.554;6.736;2023-06-10T06:44:31;14.70;;;5.57;;
37535;SDS011;23379;51.554;6.736;2023-06-10T06:46:56;12.82;;;5.40;;
37535;SDS011;23379;51.554;6.736;2023-06-10T06:49:21;7.57;;;5.00;;
37535;SDS011;23379;51.554;6.736;2023-06-10T06:51:46;9.68;;;5.28;;
37535;SDS011;23379;51.554;6.736;2023-06-10T06:54:12;10.20;;;5.50;;
37535;SDS011;23379;51.554;6.736;2023-06-10T06:56:37;7.18;;;5.05;;
37535;SDS011;23379;51.554;6.736;2023-06-10T06:59:03;8.68;;;4.57;;
37535;SDS011;23379;51.554;6.736;2023-06-10T07:01:29;6.95;;;4.60;;
37535;SDS011;23379;51.554;6.736;2023-06-10T07:03:54;8.88;;;4.70;;
37535;SDS011;23379;51.554;6.736;2023-06-10T07:06:20;12.77;;;5.03;;
37535;SDS011;23379;51.554;6.736;2023-06-10T07:08:45;8.55;;;4.57;;
37535;SDS011;23379;51.554;6.736;2023-06-10T07:11:11;12.15;;;4.53;;
37535;SDS011;23379;51.554;6.736;2023-06-10T07:13:36;6.72;;;4.20;;
37535;SDS011;23379;51.554;6.736;2023-06-10T07:16:01;6.78;;;4.65;;
37535;SDS011;23379;51.554;6.736;2023-06-10T07:18:27;10.80;;;5.53;;
37535;SDS011;23379;51.554;6.736;2023-06-10T07:20:52;9.07;;;4.35;;
37535;SDS011;23379;51.554;6.736;2023-06-10T07:23:17;12.68;;;4.65;;
37535;SDS011;23379;51.554;6.736;2023-06-10T07:25:43;9.68;;;4.47;;
37535;SDS011;23379;51.554;6.736;2023-06-10T07:28:11;10.52;;;5.05;;
37535;SDS011;23379;51.554;6.736;2023-06-10T07:30:36;9.98;;;4.32;;
37535;SDS011;23379;51.554;6.736;2023-06-10T07:33:01;7.25;;;4.80;;
37535;SDS011;23379;51.554;6.736;2023-06-10T07:35:27;10.50;;;4.65;;
37535;SDS011;23379;51.554;6.736;2023-06-10T07:37:52;27.00;;;5.38;;
37535;SDS011;23379;51.554;6.736;2023-06-10T07:40:18;18.25;;;5.07;;
37535;SDS011;23379;51.554;6.736;2023-06-10T07:42:43;7.07;;;4.53;;
37535;SDS011;23379;51.554;6.736;2023-06-10T07:45:08;12.27;;;4.88;;
37535;SDS011;23379;51.554;6.736;2023-06-10T07:47:36;13.02;;;4.63;;
37535;SDS011;23379;51.554;6.736;2023-06-10T07:50:02;6.60;;;4.38;;
37535;SDS011;23379;51.554;6.736;2023-06-10T07:52:27;9.95;;;4.20;;
37535;SDS011;23379;51.554;6.736;2023-06-10T07:54:53;12.90;;;4.53;;
37535;SDS011;23379;51.554;6.736;2023-06-10T07:57:19;13.38;;;4.53;;
37535;SDS011;23379;51.554;6.736;2023-06-10T07:59:45;10.27;;;4.80;;
37535;SDS011;23379;51.554;6.736;2023-06-10T08:02:10;11.25;;;4.45;;
37535;SDS011;23379;51.554;6.736;2023-06-10T08:04:35;14.18;;;4.40;;
37535;SDS011;23379;51.554;6.736;2023-06-10T08:07:01;26.65;;;5.75;;
37535;SDS011;23379;51.554;6.736;2023-06-10T08:09:27;13.25;;;5.03;;
37535;SDS011;23379;51.554;6.736;2023-06-10T08:11:52;20.02;;;4.82;;
37535;SDS011;23379;51.554;6.736;2023-06-10T08:14:20;17.42;;;4.38;;
37535;SDS011;23379;51.554;6.736;2023-06-10T08:16:46;9.68;;;3.83;;
37535;SDS011;23379;51.554;6.736;2023-06-10T08:19:11;14.73;;;5.18;;
37535;SDS011;23379;51.554;6.736;2023-06-10T08:21:36;10.07;;;4.35;;
37535;SDS011;23379;51.554;6.736;2023-06-10T08:24:04;10.80;;;4.35;;
37535;SDS011;23379;51.554;6.736;2023-06-10T08:26:30;7.47;;;4.03;;
37535;SDS011;23379;51.554;6.736;2023-06-10T08:28:56;10.27;;;4.53;;
37535;SDS011;23379;51.554;6.736;2023-06-10T08:31:21;8.80;;;3.80;;
37535;SDS011;23379;51.554;6.736;2023-06-10T08:33:46;11.82;;;3.78;;
37535;SDS011;23379;51.554;6.736;2023-06-10T08:36:12;9.43;;;4.25;;
37535;SDS011;23379;51.554;6.736;2023-06-10T08:38:37;10.32;;;4.07;;
37535;SDS011;23379;51.554;6.736;2023-06-10T08:41:04;8.82;;;4.50;;
37535;SDS011;23379;51.554;6.736;2023-06-10T08:46:02;11.80;;;4.28;;
37535;SDS011;23379;51.554;6.736;2023-06-10T08:48:32;11.10;;;4.57;;
37535;SDS011;23379;51.554;6.736;2023-06-10T08:51:01;7.95;;;4.15;;
37535;SDS011;23379;51.554;6.736;2023-06-10T08:53:29;7.65;;;3.47;;
37535;SDS011;23379;51.554;6.736;2023-06-10T08:55:57;7.57;;;4.18;;
37535;SDS011;23379;51.554;6.736;2023-06-10T08:58:25;7.30;;;3.90;;
37535;SDS011;23379;51.554;6.736;2023-06-10T09:00:52;7.80;;;3.95;;
37535;SDS011;23379;51.554;6.736;2023-06-10T09:03:17;8.50;;;4.55;;
37535;SDS011;23379;51.554;6.736;2023-06-10T09:05:43;15.15;;;4.45;;
37535;SDS011;23379;51.554;6.736;2023-06-10T09:08:10;10.30;;;4.20;;
37535;SDS011;23379;51.554;6.736;2023-06-10T09:10:36;12.27;;;3.92;;
37535;SDS011;23379;51.554;6.736;2023-06-10T09:13:01;9.82;;;3.97;;
37535;SDS011;23379;51.554;6.736;2023-06-10T09:15:27;10.05;;;4.50;;
37535;SDS011;23379;51.554;6.736;2023-06-10T09:17:52;9.07;;;3.72;;
37535;SDS011;23379;51.554;6.736;2023-06-10T09:20:17;12.20;;;3.78;;
37535;SDS011;23379;51.554;6.736;2023-06-10T09:22:44;7.00;;;3.50;;
37535;SDS011;23379;51.554;6.736;2023-06-10T09:25:12;20.25;;;4.40;;
37535;SDS011;23379;51.554;6.736;2023-06-10T09:27:51;16.45;;;4.00;;
37535;SDS011;23379;51.554;6.736;2023-06-10T09:33:00;7.85;;;3.90;;
37535;SDS011;23379;51.554;6.736;2023-06-10T09:35:28;6.32;;;4.25;;
37535;SDS011;23379;51.554;6.736;2023-06-10T09:37:55;16.45;;;3.97;;
37535;SDS011;23379;51.554;6.736;2023-06-10T09:40:22;9.15;;;3.72;;
37535;SDS011;23379;51.554;6.736;2023-06-10T09:42:52;8.77;;;3.50;;
37535;SDS011;23379;51.554;6.736;2023-06-10T09:45:28;5.45;;;3.42;;
37535;SDS011;23379;51.554;6.736;2023-06-10T09:47:55;6.60;;;3.75;;
37535;SDS011;23379;51.554;6.736;2023-06-10T09:50:20;9.05;;;4.18;;
37535;SDS011;23379;51.554;6.736;2023-06-10T09:52:46;6.57;;;3.85;;
37535;SDS011;23379;51.554;6.736;2023-06-10T09:55:14;9.23;;;3.97;;
37535;SDS011;23379;51.554;6.736;2023-06-10T09:57:40;8.63;;;3.78;;
37535;SDS011;23379;51.554;6.736;2023-06-10T10:00:08;16.15;;;4.10;;
37535;SDS011;23379;51.554;6.736;2023-06-10T10:02:53;7.28;;;3.70;;
37535;SDS011;23379;51.554;6.736;2023-06-10T10:05:20;7.25;;;3.55;;
37535;SDS011;23379;51.554;6.736;2023-06-10T10:07:46;11.27;;;3.60;;
37535;SDS011;23379;51.554;6.736;2023-06-10T10:10:13;5.97;;;3.72;;
37535;SDS011;23379;51.554;6.736;2023-06-10T10:12:40;7.53;;;3.80;;
37535;SDS011;23379;51.554;6.736;2023-06-10T10:15:07;8.10;;;3.85;;
37535;SDS011;23379;51.554;6.736;2023-06-10T10:20:31;7.03;;;3.75;;
37535;SDS011;23379;51.554;6.736;2023-06-10T10:22:59;7.23;;;3.87;;
37535;SDS011;23379;51.554;6.736;2023-06-10T10:25:28;7.97;;;3.78;;
37535;SDS011;23379;51.554;6.736;2023-06-10T10:28:10;7.40;;;3.88;;
37535;SDS011;23379;51.554;6.736;2023-06-10T10:30:44;6.80;;;3.47;;
37535;SDS011;23379;51.554;6.736;2023-06-10T10:33:18;6.15;;;3.70;;
37535;SDS011;23379;51.554;6.736;2023-06-10T10:35:45;5.30;;;3.85;;
37535;SDS011;23379;51.554;6.736;2023-06-10T10:38:11;7.20;;;3.80;;
37535;SDS011;23379;51.554;6.736;2023-06-10T10:40:37;7.50;;;3.60;;
37535;SDS011;23379;51.554;6.736;2023-06-10T10:43:03;4.15;;;3.47;;
37535;SDS011;23379;51.554;6.736;2023-06-10T10:45:29;5.40;;;3.70;;
37535;SDS011;23379;51.554;6.736;2023-06-10T10:47:55;8.15;;;4.05;;
37535;SDS011;23379;51.554;6.736;2023-06-10T10:50:22;6.82;;;3.50;;
37535;SDS011;23379;51.554;6.736;2023-06-10T10:52:55;5.78;;;3.38;;
37535;SDS011;23379;51.554;6.736;2023-06-10T10:55:23;6.70;;;3.70;;
37535;SDS011;23379;51.554;6.736;2023-06-10T10:57:59;7.35;;;3.67;;
37535;SDS011;23379;51.554;6.736;2023-06-10T11:00:31;8.20;;;3.97;;
37535;SDS011;23379;51.554;6.736;2023-06-10T11:03:12;6.80;;;3.63;;
37535;SDS011;23379;51.554;6.736;2023-06-10T11:05:42;10.98;;;4.00;;
37535;SDS011;23379;51.554;6.736;2023-06-10T11:08:12;5.35;;;3.70;;
37535;SDS011;23379;51.554;6.736;2023-06-10T11:10:42;6.82;;;3.80;;
37535;SDS011;23379;51.554;6.736;2023-06-10T11:13:18;5.75;;;3.88;;
37535;SDS011;23379;51.554;6.736;2023-06-10T11:15:49;6.75;;;3.88;;
37535;SDS011;23379;51.554;6.736;2023-06-10T11:18:25;8.35;;;3.78;;
37535;SDS011;23379;51.554;6.736;2023-06-10T11:20:52;5.05;;;3.90;;
37535;SDS011;23379;51.554;6.736;2023-06-10T11:28:38;5.53;;;3.92;;
37535;SDS011;23379;51.554;6.736;2023-06-10T11:31:04;14.68;;;3.78;;
37535;SDS011;23379;51.554;6.736;2023-06-10T11:33:29;6.93;;;3.78;;
37535;SDS011;23379;51.554;6.736;2023-06-10T11:35:56;9.23;;;4.18;;
37535;SDS011;23379;51.554;6.736;2023-06-10T11:38:21;5.57;;;4.15;;
37535;SDS011;23379;51.554;6.736;2023-06-10T11:40:47;8.63;;;3.58;;
37535;SDS011;23379;51.554;6.736;2023-06-10T11:43:15;6.05;;;4.00;;
37535;SDS011;23379;51.554;6.736;2023-06-10T11:45:42;4.75;;;3.35;;
37535;SDS011;23379;51.554;6.736;2023-06-10T11:48:08;7.93;;;3.75;;
37535;SDS011;23379;51.554;6.736;2023-06-10T11:50:34;7.20;;;3.95;;
37535;SDS011;23379;51.554;6.736;2023-06-10T11:53:00;8.32;;;3.90;;
37535;SDS011;23379;51.554;6.736;2023-06-10T11:55:39;5.03;;;3.63;;
37535;SDS011;23379;51.554;6.736;2023-06-10T11:58:12;6.25;;;3.70;;
37535;SDS011;23379;51.554;6.736;2023-06-10T12:00:48;6.75;;;3.38;;
37535;SDS011;23379;51.554;6.736;2023-06-10T12:03:15;7.07;;;3.60;;
37535;SDS011;23379;51.554;6.736;2023-06-10T12:05:53;8.27;;;3.53;;
37535;SDS011;23379;51.554;6.736;2023-06-10T12:08:26;8.50;;;3.70;;
37535;SDS011;23379;51.554;6.736;2023-06-10T12:10:52;5.45;;;3.47;;
37535;SDS011;23379;51.554;6.736;2023-06-10T12:13:18;12.38;;;4.10;;
37535;SDS011;23379;51.554;6.736;2023-06-10T12:15:44;5.03;;;3.22;;
37535;SDS011;23379;51.554;6.736;2023-06-10T12:18:20;9.07;;;3.63;;
37535;SDS011;23379;51.554;6.736;2023-06-10T12:20:48;8.27;;;3.58;;
37535;SDS011;23379;51.554;6.736;2023-06-10T12:23:15;5.10;;;3.40;;
37535;SDS011;23379;51.554;6.736;2023-06-10T12:25:51;11.95;;;4.03;;
37535;SDS011;23379;51.554;6.736;2023-06-10T12:28:23;10.95;;;3.45;;
37535;SDS011;23379;51.554;6.736;2023-06-10T12:30:49;4.73;;;3.40;;
37535;SDS011;23379;51.554;6.736;2023-06-10T12:33:21;7.90;;;3.85;;
37535;SDS011;23379;51.554;6.736;2023-06-10T12:35:51;7.82;;;3.63;;
37535;SDS011;23379;51.554;6.736;2023-06-10T12:38:23;7.63;;;3.80;;
37535;SDS011;23379;51.554;6.736;2023-06-10T12:40:53;6.75;;;3.60;;
37535;SDS011;23379;51.554;6.736;2023-06-10T12:43:24;9.60;;;3.63;;
37535;SDS011;23379;51.554;6.736;2023-06-10T12:45:50;5.82;;;3.50;;
37535;SDS011;23379;51.554;6.736;2023-06-10T12:48:23;13.93;;;3.75;;
37535;SDS011;23379;51.554;6.736;2023-06-10T12:50:52;5.07;;;3.88;;
37535;SDS011;23379;51.554;6.736;2023-06-10T12:53:19;7.40;;;3.28;;
37535;SDS011;23379;51.554;6.736;2023-06-10T12:55:47;6.40;;;3.25;;
37535;SDS011;23379;51.554;6.736;2023-06-10T12:58:13;10.25;;;3.75;;
37535;SDS011;23379;51.554;6.736;2023-06-10T13:00:39;4.53;;;3.78;;
37535;SDS011;23379;51.554;6.736;2023-06-10T13:03:05;8.55;;;3.88;;
37535;SDS011;23379;51.554;6.736;2023-06-10T13:05:31;6.18;;;3.75;;
37535;SDS011;23379;51.554;6.736;2023-06-10T13:07:57;7.15;;;3.78;;
37535;SDS011;23379;51.554;6.736;2023-06-10T13:10:24;9.60;;;3.70;;
37535;SDS011;23379;51.554;6.736;2023-06-10T13:12:52;5.70;;;3.50;;
37535;SDS011;23379;51.554;6.736;2023-06-10T13:15:19;5.63;;;3.53;;
37535;SDS011;23379;51.554;6.736;2023-06-10T13:17:45;4.95;;;3.47;;
37535;SDS011;23379;51.554;6.736;2023-06-10T13:20:14;9.85;;;4.13;;
37535;SDS011;23379;51.554;6.736;2023-06-10T13:22:39;11.02;;;3.55;;
37535;SDS011;23379;51.554;6.736;2023-06-10T13:25:05;6.50;;;3.05;;
37535;SDS011;23379;51.554;6.736;2023-06-10T13:27:34;10.38;;;3.40;;
37535;SDS011;23379;51.554;6.736;2023-06-10T13:30:00;6.65;;;3.55;;
37535;SDS011;23379;51.554;6.736;2023-06-10T13:32:26;7.93;;;3.60;;
37535;SDS011;23379;51.554;6.736;2023-06-10T13:34:51;6.43;;;3.80;;
37535;SDS011;23379;51.554;6.736;2023-06-10T13:37:18;11.55;;;3.83;;
37535;SDS011;23379;51.554;6.736;2023-06-10T13:39:44;5.72;;;3.55;;
37535;SDS011;23379;51.554;6.736;2023-06-10T13:42:12;6.88;;;3.65;;
37535;SDS011;23379;51.554;6.736;2023-06-10T13:44:37;6.10;;;3.63;;
37535;SDS011;23379;51.554;6.736;2023-06-10T13:47:02;5.72;;;3.70;;
37535;SDS011;23379;51.554;6.736;2023-06-10T13:49:28;7.13;;;3.47;;
37535;SDS011;23379;51.554;6.736;2023-06-10T13:51:54;6.53;;;4.80;;
37535;SDS011;23379;51.554;6.736;2023-06-10T13:54:19;6.97;;;4.30;;
37535;SDS011;23379;51.554;6.736;2023-06-10T13:56:46;8.20;;;4.35;;
37535;SDS011;23379;51.554;6.736;2023-06-10T13:59:11;7.32;;;4.25;;
37535;SDS011;23379;51.554;6.736;2023-06-10T14:01:37;12.48;;;4.63;;
37535;SDS011;23379;51.554;6.736;2023-06-10T14:04:02;8.35;;;5.10;;
37535;SDS011;23379;51.554;6.736;2023-06-10T14:06:28;14.27;;;4.40;;
37535;SDS011;23379;51.554;6.736;2023-06-10T14:08:53;6.20;;;4.00;;
37535;SDS011;23379;51.554;6.736;2023-06-10T14:11:19;11.77;;;4.47;;
37535;SDS011;23379;51.554;6.736;2023-06-10T14:13:46;7.05;;;4.38;;
37535;SDS011;23379;51.554;6.736;2023-06-10T14:16:11;6.88;;;4.60;;
37535;SDS011;23379;51.554;6.736;2023-06-10T14:18:36;8.32;;;4.72;;
37535;SDS011;23379;51.554;6.736;2023-06-10T14:21:02;5.82;;;4.10;;
37535;SDS011;23379;51.554;6.736;2023-06-10T14:23:27;4.53;;;3.92;;
37535;SDS011;23379;51.554;6.736;2023-06-10T14:25:53;9.27;;;4.20;;
37535;SDS011;23379;51.554;6.736;2023-06-10T14:28:18;7.78;;;4.72;;
37535;SDS011;23379;51.554;6.736;2023-06-10T14:30:43;7.78;;;5.03;;
37535;SDS011;23379;51.554;6.736;2023-06-10T14:33:09;8.55;;;4.45;;
37535;SDS011;23379;51.554;6.736;2023-06-10T14:35:34;8.45;;;4.43;;
37535;SDS011;23379;51.554;6.736;2023-06-10T14:37:59;6.38;;;4.18;;
37535;SDS011;23379;51.554;6.736;2023-06-10T14:40:25;6.63;;;4.38;;
37535;SDS011;23379;51.554;6.736;2023-06-10T14:42:53;16.40;;;4.05;;
37535;SDS011;23379;51.554;6.736;2023-06-10T14:45:19;6.22;;;4.00;;
37535;SDS011;23379;51.554;6.736;2023-06-10T14:47:44;5.85;;;4.13;;
37535;SDS011;23379;51.554;6.736;2023-06-10T14:50:10;4.90;;;4.22;;
37535;SDS011;23379;51.554;6.736;2023-06-10T14:52:35;4.32;;;3.92;;
37535;SDS011;23379;51.554;6.736;2023-06-10T14:55:01;7.00;;;4.35;;
37535;SDS011;23379;51.554;6.736;2023-06-10T14:57:26;4.43;;;3.80;;
37535;SDS011;23379;51.554;6.736;2023-06-10T14:59:51;11.40;;;4.57;;